EGCC/MAN METAR and TAF weather

Enter ICAO airport designator
Station Type Date Time Source
EGCC METAR 2020/08/14 17:20 UTC NOAA

EGCC 141720Z AUTO 05009KT 9999 NCD 23/17 Q1015 NOSIG


Station Type Date Time Source
EGCC Decoded METAR 2020/08/14 17:20 UTC NOAA

Manchester Airport, United Kingdom (EGCC) 53-21N 002-17W 0M
Aug 14, 2020 - 01:20 PM EDT / 2020.08.14 1720 UTC
Wind: from the NE (050 degrees) at 10 MPH (9 KT):0
Visibility: greater than 7 mile(s):0
Temperature: 73 F (23 C)
Dew Point: 62 F (17 C)
Relative Humidity: 68%
Pressure (altimeter): 29.97 in. Hg (1015 hPa)
ob: EGCC 141720Z AUTO 05009KT 9999 NCD 23/17 Q1015 NOSIG
cycle: 17

Station Type Date Time Source
EGCC TAF 2020/08/14 18:09 UTC NOAA

TAF EGCC 141700Z 1418/1524 05008KT 9999 FEW045
TEMPO 1500/1512 BKN012 PROB30
TEMPO 1500/1509 8000 BKN008
TEMPO 1515/1518 6000 SHRA PROB30
TEMPO 1515/1524 3000 +SHRA +TSRA

Example: see airport list